Time;durP1;ratioP1;P1;durP2;ratioP2;P2;SDS_P1;SDS_P2;PMS_P1;PMS_P2;Temp;Humidity;BMP_temperature;BMP_pressure;BME280_temperature;BME280_humidity;BME280_pressure;Samples;Min_cycle;Max_cycle;Signal;HPM_P1;HPM_P2
2021/04/24 00:05:54;;;;;;;16.13;6.60;;;7.10;93.20;;;;;;3481438;41;20066;-87
2021/04/24 00:08:59;;;;;;;17.58;5.28;;;7.00;94.30;;;;;;3475414;41;20041;-85
2021/04/24 00:11:36;;;;;;;18.83;7.18;;;6.90;94.80;;;;;;3477983;41;20095;-85
2021/04/24 00:18:39;;;;;;;12.80;5.70;;;6.90;95.60;;;;;;3459164;41;20057;-84
2021/04/24 00:21:10;;;;;;;14.70;5.82;;;6.80;96.90;;;;;;3467231;41;20035;-85
2021/04/24 00:23:41;;;;;;;15.70;6.22;;;6.70;97.90;;;;;;3466924;41;20030;-88
2021/04/24 00:26:23;;;;;;;15.73;6.20;;;6.60;98.60;;;;;;3474477;41;20042;-87
2021/04/24 00:28:55;;;;;;;13.48;6.13;;;6.60;98.60;;;;;;3458930;41;20030;-85
2021/04/24 00:31:35;;;;;;;15.18;5.80;;;6.50;99.10;;;;;;3468204;41;20379;-84
2021/04/24 00:34:11;;;;;;;17.30;6.15;;;6.50;99.60;;;;;;3460526;41;20042;-83
2021/04/24 00:36:43;;;;;;;17.70;6.55;;;6.50;99.80;;;;;;3459877;41;20081;-84
2021/04/24 00:39:19;;;;;;;15.32;6.00;;;6.50;99.90;;;;;;3463382;41;20034;-83
2021/04/24 00:42:10;;;;;;;14.50;6.85;;;6.50;99.90;;;;;;3478065;41;20042;-84
2021/04/24 00:44:48;;;;;;;18.58;7.40;;;6.40;99.90;;;;;;3469329;41;20066;-83
2021/04/24 00:47:24;;;;;;;15.48;6.15;;;6.40;99.90;;;;;;3467974;41;20042;-84
2021/04/24 00:49:55;;;;;;;19.65;8.10;;;6.30;99.90;;;;;;3468081;41;20040;-84
2021/04/24 00:52:28;;;;;;;17.60;6.82;;;6.30;99.90;;;;;;3465237;41;20035;-84
2021/04/24 00:55:32;;;;;;;19.52;6.15;;;6.30;99.90;;;;;;3455078;41;20054;-83
2021/04/24 00:58:11;;;;;;;13.40;5.78;;;6.20;99.90;;;;;;3455257;41;20038;-83
2021/04/24 01:00:44;;;;;;;16.70;6.40;;;6.10;99.90;;;;;;3468263;41;20047;-83
2021/04/24 01:03:17;;;;;;;11.23;5.23;;;6.10;99.90;;;;;;3468319;41;20051;-83
2021/04/24 01:05:50;;;;;;;19.35;6.28;;;6.00;99.90;;;;;;3464135;41;20064;-85
2021/04/24 01:09:01;;;;;;;15.95;6.00;;;6.00;99.90;;;;;;3454835;41;20049;-84
2021/04/24 01:11:31;;;;;;;14.70;5.55;;;6.10;99.90;;;;;;3446532;41;20027;-85
2021/04/24 01:14:05;;;;;;;12.15;6.13;;;6.20;99.90;;;;;;3447235;41;20031;-84
2021/04/24 01:16:36;;;;;;;20.05;6.05;;;6.10;99.90;;;;;;3446426;41;20139;-82
2021/04/24 01:19:09;;;;;;;14.75;5.90;;;6.10;99.90;;;;;;3447389;41;20035;-81
2021/04/24 01:22:46;;;;;;;11.02;5.40;;;6.00;99.90;;;;;;3445767;41;20154;-84
2021/04/24 01:25:45;;;;;;;14.43;5.90;;;6.00;99.90;;;;;;3447399;41;20050;-83
2021/04/24 01:28:17;;;;;;;12.27;5.05;;;5.90;99.90;;;;;;3462674;41;20038;-83
2021/04/24 01:31:36;;;;;;;16.50;5.15;;;6.00;99.90;;;;;;3457736;41;20035;-82
2021/04/24 01:34:08;;;;;;;14.70;5.70;;;6.10;99.90;;;;;;3475763;41;20034;-81
2021/04/24 01:36:46;;;;;;;16.88;5.20;;;6.10;99.90;;;;;;3468467;41;20035;-87
2021/04/24 08:12:15;;;;;;;11.65;5.88;;;10.70;92.60;;;;;;5413698;24;20038;-85
2021/04/24 08:48:38;;;;;;;13.38;4.53;;;12.20;76.10;;;;;;3569306;23;20045;-88
2021/04/24 08:54:21;;;;;;;14.27;4.97;;;12.70;72.50;;;;;;3662544;24;20041;-87
2021/04/24 09:00:29;;;;;;;9.85;4.40;;;12.80;70.40;;;;;;3569975;24;20053;-87
2021/04/24 09:25:03;;;;;;;10.20;4.95;;;12.60;67.80;;;;;;4742089;24;20026;-85
2021/04/24 09:33:37;;;;;;;11.55;4.20;;;13.20;65.70;;;;;;1373957;24;20283;31
2021/04/24 09:36:13;;;;;;;9.55;4.15;;;13.40;64.30;;;;;;3790670;24;20085;-89
2021/04/24 09:48:34;;;;;;;8.25;3.92;;;13.10;63.20;;;;;;3677151;24;20069;31
2021/04/24 09:51:38;;;;;;;7.47;3.67;;;13.40;61.20;;;;;;3591098;24;19969;-89
2021/04/24 09:54:10;;;;;;;13.90;4.22;;;13.60;58.80;;;;;;3601266;24;20042;31
2021/04/24 09:59:49;;;;;;;12.05;4.50;;;13.20;60.20;;;;;;3695053;23;20997;31
2021/04/24 10:05:44;;;;;;;11.55;5.00;;;13.10;60.20;;;;;;1279004;23;20179;-93
2021/04/24 10:08:22;;;;;;;11.40;4.40;;;13.00;61.10;;;;;;3609428;24;20147;-90
2021/04/24 10:11:35;;;;;;;10.57;4.63;;;13.50;60.30;;;;;;3620998;23;20061;-89
2021/04/24 10:20:21;;;;;;;14.57;5.60;;;13.70;58.90;;;;;;3696204;23;20061;-92
2021/04/24 10:41:03;;;;;;;12.75;4.97;;;13.30;60.00;;;;;;3639663;24;20074;-92
2021/04/24 10:50:03;;;;;;;13.98;4.20;;;13.60;59.50;;;;;;3534126;24;20038;31
2021/04/24 10:53:20;;;;;;;9.32;3.70;;;13.80;58.90;;;;;;3644605;24;20053;-89
2021/04/24 10:55:54;;;;;;;10.38;4.20;;;13.90;58.50;;;;;;1180225;24;20279;-85
2021/04/24 11:10:41;;;;;;;11.70;4.50;;;13.50;59.30;;;;;;3660299;23;20077;-89
2021/04/24 11:19:29;;;;;;;13.95;5.72;;;13.50;58.90;;;;;;3573895;24;20347;-87
2021/04/24 11:22:35;;;;;;;11.85;4.10;;;13.70;58.00;;;;;;3479246;41;20025;-87
2021/04/24 11:36:25;;;;;;;12.75;4.25;;;14.40;55.60;;;;;;3507785;40;20024;-90
2021/04/24 11:39:11;;;;;;;7.82;4.10;;;14.60;54.50;;;;;;3504836;41;20107;-89
2021/04/24 11:41:42;;;;;;;9.98;4.00;;;15.00;53.40;;;;;;3478049;41;20045;-89
2021/04/24 11:44:55;;;;;;;6.22;3.42;;;15.10;52.50;;;;;;3466889;41;20046;-91
2021/04/24 11:47:49;;;;;;;7.15;3.60;;;15.10;51.70;;;;;;3465543;41;20034;-88
2021/04/24 11:50:46;;;;;;;7.30;3.55;;;14.50;52.60;;;;;;3447360;41;20027;-87
2021/04/24 11:58:53;;;;;;;9.00;3.42;;;14.50;52.70;;;;;;3652578;23;20066;-91
2021/04/24 12:01:31;;;;;;;13.15;4.22;;;14.70;51.80;;;;;;3618493;23;20912;-89
2021/04/24 12:04:23;;;;;;;8.68;3.72;;;14.30;52.00;;;;;;3570503;23;20160;-90
2021/04/24 12:07:05;;;;;;;9.02;3.70;;;14.20;52.80;;;;;;3461365;41;20698;-87
2021/04/24 12:09:53;;;;;;;10.80;3.42;;;14.50;52.20;;;;;;3500155;24;20395;-86
2021/04/24 12:12:53;;;;;;;11.32;3.40;;;14.60;51.80;;;;;;3561605;24;20045;-88
2021/04/24 12:18:33;;;;;;;7.63;3.72;;;14.80;50.10;;;;;;3535837;24;20054;31
2021/04/24 12:25:34;;;;;;;8.27;2.88;;;16.30;47.90;;;;;;3492047;41;20056;-87
2021/04/24 12:28:06;;;;;;;6.47;2.65;;;18.00;45.20;;;;;;3484380;41;20042;-87
2021/04/24 12:30:36;;;;;;;8.00;2.83;;;18.60;43.50;;;;;;3485989;41;20044;-88
2021/04/24 12:33:09;;;;;;;8.73;3.08;;;19.90;40.30;;;;;;3466875;41;20082;-88
2021/04/24 12:35:41;;;;;;;7.50;2.88;;;20.60;39.60;;;;;;3473091;41;20073;-86
2021/04/24 12:38:13;;;;;;;6.90;2.83;;;20.80;38.50;;;;;;3459627;41;20105;-85
2021/04/24 12:40:48;;;;;;;6.53;2.70;;;20.40;39.10;;;;;;3460380;41;20102;-89
2021/04/24 12:43:19;;;;;;;8.02;3.53;;;19.50;39.60;;;;;;3473310;41;20774;-87
2021/04/24 12:45:48;;;;;;;5.78;3.08;;;18.60;40.30;;;;;;3462685;41;20038;-87
2021/04/24 12:48:18;;;;;;;11.95;3.50;;;17.90;41.60;;;;;;3464323;41;20066;-88
2021/04/24 12:50:49;;;;;;;7.72;3.20;;;17.70;42.30;;;;;;3461947;41;20063;-87
2021/04/24 12:53:30;;;;;;;6.72;3.10;;;17.50;42.60;;;;;;3453730;41;20099;-88
2021/04/24 12:56:02;;;;;;;8.43;3.60;;;17.40;42.70;;;;;;3465617;41;20098;-86
2021/04/24 12:58:32;;;;;;;6.00;2.78;;;17.90;42.80;;;;;;3435904;41;20072;-85
2021/04/24 13:01:14;;;;;;;6.47;3.42;;;19.20;40.20;;;;;;3421038;42;20100;-88
2021/04/24 13:03:43;;;;;;;7.88;3.30;;;20.50;37.90;;;;;;3425682;42;20064;-85
2021/04/24 13:06:13;;;;;;;6.60;2.95;;;22.50;35.60;;;;;;3434637;41;20121;-84
2021/04/24 13:08:41;;;;;;;9.10;2.80;;;24.30;33.00;;;;;;3435622;41;20090;-84
2021/04/24 13:11:21;;;;;;;7.65;3.15;;;24.00;33.20;;;;;;3448943;41;20356;-87
2021/04/24 13:13:48;;;;;;;6.32;3.08;;;23.00;34.50;;;;;;3458995;41;20127;-86
2021/04/24 13:16:30;;;;;;;7.45;2.80;;;21.90;36.00;;;;;;3448507;41;20070;-87
2021/04/24 13:18:57;;;;;;;7.93;3.40;;;20.70;37.40;;;;;;3458628;41;20067;-86
2021/04/24 13:21:27;;;;;;;5.03;2.78;;;19.30;40.10;;;;;;3451910;41;20161;-86
2021/04/24 13:24:07;;;;;;;10.02;3.17;;;18.80;41.40;;;;;;3454986;41;20092;-87
2021/04/24 13:26:40;;;;;;;6.90;2.80;;;18.60;41.70;;;;;;3460404;41;20335;-87
2021/04/24 13:29:16;;;;;;;6.95;3.38;;;17.80;42.20;;;;;;3463345;41;20073;-85
2021/04/24 13:31:45;;;;;;;7.28;3.15;;;17.70;42.60;;;;;;3483058;41;20094;-86
2021/04/24 13:34:43;;;;;;;6.28;3.17;;;17.60;42.80;;;;;;3483634;41;20044;-88
2021/04/24 13:37:12;;;;;;;8.07;2.78;;;17.60;43.20;;;;;;3483057;41;20085;-89
2021/04/24 13:39:55;;;;;;;8.75;3.03;;;18.00;42.90;;;;;;3470879;41;20045;-88
2021/04/24 13:42:37;;;;;;;6.78;3.40;;;17.70;43.00;;;;;;3492390;41;20044;-87
2021/04/24 13:48:00;;;;;;;10.85;3.22;;;17.10;44.20;;;;;;3465782;41;20114;-88
2021/04/24 13:50:35;;;;;;;7.32;3.20;;;16.90;44.50;;;;;;3475727;41;20097;-87
2021/04/24 13:53:11;;;;;;;10.98;3.33;;;16.60;45.30;;;;;;3474874;41;20073;-88
2021/04/24 13:55:39;;;;;;;8.93;2.70;;;17.50;44.60;;;;;;3478081;41;20081;-87
2021/04/24 13:58:08;;;;;;;6.32;2.97;;;19.20;41.60;;;;;;3478712;41;20066;-86
2021/04/24 14:00:37;;;;;;;7.00;2.80;;;20.00;40.10;;;;;;3481827;41;20081;-87
2021/04/24 14:03:10;;;;;;;10.23;3.17;;;20.70;38.30;;;;;;3471784;41;20093;-86
2021/04/24 14:05:37;;;;;;;8.93;3.25;;;20.50;37.70;;;;;;3478265;41;20070;-88
2021/04/24 14:08:05;;;;;;;6.95;2.40;;;19.70;38.90;;;;;;3479218;41;20101;-86
2021/04/24 14:10:40;;;;;;;7.65;2.40;;;20.00;38.70;;;;;;3479810;41;20070;-85
2021/04/24 14:13:09;;;;;;;7.43;2.70;;;20.30;37.50;;;;;;3471264;41;20089;-85
2021/04/24 14:15:43;;;;;;;5.68;2.67;;;19.80;38.40;;;;;;3478973;41;20098;-87
2021/04/24 14:18:12;;;;;;;8.95;2.95;;;19.00;39.80;;;;;;3480827;41;20600;-87
2021/04/24 14:20:43;;;;;;;8.32;3.72;;;18.60;40.40;;;;;;3479676;41;20409;-88
2021/04/24 14:23:26;;;;;;;6.10;3.15;;;18.50;40.90;;;;;;3482883;41;20543;-85
2021/04/24 14:29:10;;;;;;;6.70;2.45;;;19.40;38.90;;;;;;3479850;41;20325;-86
2021/04/24 14:31:38;;;;;;;7.05;2.72;;;19.20;38.90;;;;;;3478128;41;20284;-83
2021/04/24 14:34:18;;;;;;;9.60;3.65;;;18.80;38.90;;;;;;3465927;41;20046;-87
2021/04/24 14:36:46;;;;;;;6.50;2.80;;;18.50;39.80;;;;;;3468560;41;20033;-87
2021/04/24 14:39:16;;;;;;;8.18;2.65;;;18.90;39.60;;;;;;3463340;41;20069;-87
2021/04/24 14:41:48;;;;;;;7.40;2.72;;;19.60;39.00;;;;;;3469066;41;20068;-86
2021/04/24 14:44:19;;;;;;;7.97;2.70;;;21.10;37.70;;;;;;3462491;41;20066;-88
2021/04/24 14:46:47;;;;;;;6.22;2.65;;;22.10;36.10;;;;;;3451423;41;20098;-86
2021/04/24 14:49:17;;;;;;;6.20;2.80;;;21.60;35.80;;;;;;3453345;41;20089;-85
2021/04/24 14:51:44;;;;;;;11.32;3.10;;;21.30;36.70;;;;;;3468332;41;20074;-90
2021/04/24 14:54:12;;;;;;;11.30;2.92;;;20.70;36.70;;;;;;3452912;41;20067;-86
2021/04/24 14:56:41;;;;;;;4.60;2.35;;;20.20;36.70;;;;;;3455263;41;20122;-85
2021/04/24 14:59:16;;;;;;;5.53;2.38;;;20.20;36.10;;;;;;3458308;41;20078;-86
2021/04/24 15:01:48;;;;;;;8.43;3.13;;;20.60;35.50;;;;;;3458090;41;20094;-85
2021/04/24 15:04:25;;;;;;;7.80;2.58;;;20.80;34.80;;;;;;3434908;41;20063;-85
2021/04/24 15:06:55;;;;;;;7.13;2.45;;;21.20;35.20;;;;;;3446262;41;20106;-85
2021/04/24 15:09:24;;;;;;;;;;;21.70;34.50;;;;;;3445633;41;20427;-87
2021/04/24 15:11:53;;;;;;;6.13;2.65;;;21.50;34.70;;;;;;3448148;41;20309;-87
2021/04/24 15:14:26;;;;;;;9.20;2.60;;;21.00;35.50;;;;;;3448585;41;20099;-86
2021/04/24 15:16:59;;;;;;;6.28;2.42;;;20.80;35.20;;;;;;3441388;41;20079;-86
2021/04/24 15:19:27;;;;;;;4.95;1.90;;;20.50;34.80;;;;;;3451774;41;20083;-84
2021/04/24 15:22:00;;;;;;;9.05;2.47;;;20.00;35.70;;;;;;3434669;41;20064;-89
2021/04/24 15:24:30;;;;;;;6.78;2.75;;;18.90;36.90;;;;;;3454448;41;20043;-89
2021/04/24 15:26:59;;;;;;;4.93;2.43;;;18.60;38.10;;;;;;3461341;41;20431;-89
2021/04/24 15:29:27;;;;;;;7.85;2.63;;;18.50;37.80;;;;;;3443408;41;20466;-85
2021/04/24 15:31:55;;;;;;;5.47;2.57;;;18.40;38.20;;;;;;3449131;41;20095;-85
2021/04/24 15:34:22;;;;;;;5.97;2.10;;;19.30;36.70;;;;;;3455855;41;20426;-85
2021/04/24 15:36:52;;;;;;;5.07;3.00;;;20.30;34.60;;;;;;3456219;41;20067;-85
2021/04/24 15:39:23;;;;;;;7.55;2.60;;;21.20;33.70;;;;;;3458415;41;20093;-85
2021/04/24 15:42:23;;;;;;;6.28;2.50;;;21.70;33.20;;;;;;3468157;41;20081;-85
2021/04/24 15:44:59;;;;;;;9.00;3.15;;;21.80;33.00;;;;;;3482092;41;20090;-84
2021/04/24 15:47:28;;;;;;;7.20;2.72;;;21.90;33.30;;;;;;3464849;41;20199;-81
2021/04/24 15:49:58;;;;;;;5.80;2.60;;;22.10;33.20;;;;;;3476312;41;20062;-84
2021/04/24 15:52:26;;;;;;;5.93;2.35;;;21.60;33.00;;;;;;3459430;41;20058;-84
2021/04/24 15:55:00;;;;;;;6.43;2.20;;;21.10;33.50;;;;;;3464393;41;20085;-84
2021/04/24 15:57:47;;;;;;;6.47;2.97;;;20.70;34.00;;;;;;3468339;41;20082;-85
2021/04/24 16:00:28;;;;;;;8.98;3.03;;;20.50;34.20;;;;;;3458755;41;20093;-84
2021/04/24 16:02:57;;;;;;;11.65;3.67;;;19.70;35.40;;;;;;3473915;41;20070;-86
2021/04/24 16:05:27;;;;;;;7.18;2.65;;;19.20;36.40;;;;;;3458815;41;20082;-87
2021/04/24 16:07:54;;;;;;;7.18;2.47;;;18.80;36.70;;;;;;3473736;41;20070;-86
2021/04/24 16:10:24;;;;;;;15.13;2.35;;;18.20;37.70;;;;;;3474000;41;20078;-85
2021/04/24 16:12:53;;;;;;;6.40;2.05;;;18.40;37.40;;;;;;3473021;41;20091;-86
2021/04/24 16:15:22;;;;;;;3.80;2.13;;;18.50;36.70;;;;;;3469611;41;20066;-86
2021/04/24 16:17:55;;;;;;;5.18;2.50;;;18.20;37.40;;;;;;3469655;41;20077;-85
2021/04/24 16:20:23;;;;;;;7.70;2.80;;;17.90;37.50;;;;;;3469124;41;20402;-87
2021/04/24 16:22:54;;;;;;;6.40;2.25;;;17.70;37.80;;;;;;3469063;41;20493;-86
2021/04/24 16:25:27;;;;;;;6.72;2.60;;;17.70;37.80;;;;;;3477737;41;20062;-86
2021/04/24 16:27:57;;;;;;;9.60;2.85;;;17.90;37.80;;;;;;3478803;41;20100;-85
2021/04/24 16:30:25;;;;;;;5.32;2.67;;;17.80;37.70;;;;;;3473506;41;20103;-87
2021/04/24 16:32:56;;;;;;;6.07;2.50;;;17.70;38.10;;;;;;3481649;41;20331;-87
2021/04/24 16:35:24;;;;;;;10.68;3.30;;;17.80;38.20;;;;;;3473904;41;20065;-88
2021/04/24 16:38:00;;;;;;;9.15;3.20;;;18.00;38.10;;;;;;3489750;41;20086;-87
2021/04/24 16:40:30;;;;;;;8.55;2.90;;;18.10;37.50;;;;;;3480381;41;20062;-84
2021/04/24 16:42:58;;;;;;;10.73;2.65;;;18.30;37.10;;;;;;3480516;41;20095;-85
2021/04/24 16:45:26;;;;;;;4.97;2.55;;;18.30;37.10;;;;;;3465799;41;20096;-86
2021/04/24 16:47:54;;;;;;;6.45;2.65;;;18.20;37.40;;;;;;3478719;41;20458;-88
2021/04/24 16:50:23;;;;;;;10.60;2.92;;;18.10;37.50;;;;;;3456077;41;20152;-86
2021/04/24 16:52:55;;;;;;;5.38;2.80;;;17.80;38.30;;;;;;3461038;41;20106;-85
2021/04/24 16:55:24;;;;;;;6.65;3.20;;;17.80;38.40;;;;;;3470646;41;20120;-85
2021/04/24 16:58:10;;;;;;;;;;;17.80;38.20;;;;;;3471495;41;20074;-85
2021/04/24 17:00:42;;;;;;;6.95;2.75;;;17.70;38.30;;;;;;3478217;41;19964;-87
2021/04/24 17:03:14;;;;;;;4.32;2.40;;;17.70;38.50;;;;;;3479689;41;20086;-86
2021/04/24 17:05:47;;;;;;;5.75;2.35;;;17.40;38.70;;;;;;3466388;41;20034;-88
2021/04/24 17:08:14;;;;;;;8.32;2.40;;;17.30;38.80;;;;;;3459046;41;20090;-85
2021/04/24 17:10:42;;;;;;;5.90;2.63;;;17.10;38.80;;;;;;3462021;41;20085;-86
2021/04/24 17:13:10;;;;;;;7.75;2.58;;;17.00;39.20;;;;;;3466919;41;20098;-87
2021/04/24 17:15:38;;;;;;;8.23;2.58;;;16.70;39.30;;;;;;3474912;41;20093;-87
2021/04/24 17:18:07;;;;;;;6.30;2.55;;;16.50;39.80;;;;;;3478204;41;20070;-88
2021/04/24 17:20:35;;;;;;;;;;;16.40;40.00;;;;;;3472278;41;20070;-86
2021/04/24 17:23:05;;;;;;;7.45;2.53;;;16.80;39.70;;;;;;3472353;41;19983;-86
2021/04/24 17:25:41;;;;;;;9.43;2.67;;;17.00;39.30;;;;;;3475942;41;21191;-85
2021/04/24 17:28:14;;;;;;;6.82;2.72;;;17.30;38.90;;;;;;3472493;41;20085;-85
2021/04/24 17:30:44;;;;;;;9.18;2.90;;;17.40;38.90;;;;;;3480506;41;20079;-86
2021/04/24 17:33:12;;;;;;;7.28;2.28;;;17.50;38.60;;;;;;3463101;41;20062;-86
2021/04/24 17:35:41;;;;;;;;;;;17.70;38.30;;;;;;3478326;41;20101;-85
2021/04/24 17:38:16;;;;;;;5.95;2.25;;;17.70;38.20;;;;;;3475815;41;19980;-87
2021/04/24 17:40:44;;;;;;;7.28;2.45;;;17.80;38.20;;;;;;3479936;41;20089;-86
2021/04/24 17:43:22;;;;;;;9.02;2.92;;;17.70;38.30;;;;;;3461983;41;20069;-84
2021/04/24 17:46:00;;;;;;;8.88;2.92;;;17.40;38.60;;;;;;3476305;41;20097;-85
2021/04/24 17:48:31;;;;;;;5.53;2.50;;;16.70;39.60;;;;;;3467638;41;20122;-87
2021/04/24 17:51:04;;;;;;;6.88;2.20;;;15.80;41.20;;;;;;3477599;41;20085;-87
2021/04/24 17:53:33;;;;;;;10.10;2.90;;;15.00;42.70;;;;;;3469631;41;20148;-86
2021/04/24 17:56:01;;;;;;;5.32;2.45;;;14.30;44.20;;;;;;3470645;41;20085;-87
2021/04/24 17:58:31;;;;;;;6.45;2.40;;;13.70;45.50;;;;;;3462317;41;20093;-85
2021/04/24 18:00:59;;;;;;;7.60;2.92;;;13.30;46.60;;;;;;3477502;41;20121;-87
2021/04/24 18:03:28;;;;;;;7.57;2.53;;;12.90;47.40;;;;;;3486115;41;20073;-86
2021/04/24 18:05:59;;;;;;;6.43;2.78;;;12.60;48.20;;;;;;3471193;41;20098;-87
2021/04/24 18:08:29;;;;;;;7.93;2.80;;;12.30;48.80;;;;;;3487234;41;20109;-86
2021/04/24 18:11:06;;;;;;;9.77;2.90;;;12.10;49.60;;;;;;3471265;41;20074;-84
2021/04/24 18:13:36;;;;;;;10.10;3.70;;;11.80;50.10;;;;;;3479015;41;20086;-85
2021/04/24 18:16:08;;;;;;;10.77;3.50;;;11.60;50.60;;;;;;3470629;41;20101;-85
2021/04/24 18:18:39;;;;;;;9.93;2.78;;;11.50;51.20;;;;;;3479822;41;20413;-86
2021/04/24 18:21:13;;;;;;;7.15;2.50;;;11.40;51.40;;;;;;3465965;41;20069;-84
2021/04/24 18:23:52;;;;;;;5.80;2.90;;;11.20;51.80;;;;;;3471591;41;20085;-82
2021/04/24 18:26:36;;;;;;;7.88;2.55;;;11.00;52.20;;;;;;3481581;41;20042;-85
2021/04/24 18:29:16;;;;;;;8.63;2.28;;;10.80;52.50;;;;;;3487336;41;20078;-83
2021/04/24 18:31:45;;;;;;;6.95;2.90;;;10.70;53.00;;;;;;3471353;41;20101;-82
2021/04/24 18:34:13;;;;;;;5.78;2.53;;;10.60;53.40;;;;;;3468723;41;20121;-84
2021/04/24 18:36:54;;;;;;;7.60;2.47;;;10.50;53.70;;;;;;3471525;41;20070;-85
2021/04/24 18:39:30;;;;;;;6.32;2.78;;;10.40;53.90;;;;;;3482971;41;20066;-85
2021/04/24 18:42:03;;;;;;;9.82;3.28;;;10.30;54.30;;;;;;3481502;41;20502;-85
2021/04/24 18:44:31;;;;;;;12.10;3.28;;;10.10;54.60;;;;;;3465890;41;20061;-85
2021/04/24 18:47:03;;;;;;;8.18;3.63;;;10.10;55.10;;;;;;3489788;41;20086;-86
2021/04/24 18:49:31;;;;;;;10.48;3.50;;;10.10;55.50;;;;;;3481454;41;20057;-86
2021/04/24 18:51:58;;;;;;;10.68;2.92;;;9.90;55.50;;;;;;3473433;41;20093;-87
2021/04/24 18:54:26;;;;;;;6.40;2.85;;;9.90;55.60;;;;;;3488218;41;20081;-84
2021/04/24 18:56:54;;;;;;;;;;;9.80;55.70;;;;;;3479632;41;20093;-83
2021/04/24 18:59:23;;;;;;;8.73;2.90;;;9.70;56.20;;;;;;3476189;41;19944;-86
2021/04/24 19:01:51;;;;;;;;;;;9.70;56.70;;;;;;3484390;41;20149;-88
2021/04/24 19:04:25;;;;;;;11.60;5.40;;;9.70;57.40;;;;;;3491561;41;19952;-84
2021/04/24 19:06:53;;;;;;;12.93;4.75;;;9.60;57.70;;;;;;3481692;41;20061;-83
2021/04/24 19:09:35;;;;;;;9.73;4.70;;;9.60;58.00;;;;;;3468477;41;20070;-84
2021/04/24 19:12:04;;;;;;;14.25;4.65;;;9.60;58.50;;;;;;3483102;41;20283;-82
2021/04/24 19:14:31;;;;;;;11.98;5.22;;;9.50;59.10;;;;;;3482824;41;20040;-82
2021/04/24 19:17:01;;;;;;;8.47;4.57;;;9.40;59.60;;;;;;3473591;41;20098;-87
2021/04/24 19:19:29;;;;;;;15.25;5.82;;;9.30;60.10;;;;;;3490566;41;20301;-86
2021/04/24 19:21:57;;;;;;;10.48;4.65;;;9.30;60.50;;;;;;3490137;41;20065;-85
2021/04/24 19:24:27;;;;;;;17.58;6.13;;;9.30;60.60;;;;;;3479178;41;20069;-83
2021/04/24 19:26:54;;;;;;;13.13;5.93;;;9.30;61.20;;;;;;3486543;41;20093;-82
2021/04/24 19:29:22;;;;;;;8.88;4.53;;;9.20;61.30;;;;;;3487479;41;20074;-83
2021/04/24 19:31:49;;;;;;;9.60;4.80;;;9.10;61.30;;;;;;3478735;41;20106;-82
2021/04/24 19:34:27;;;;;;;13.20;5.35;;;9.10;61.50;;;;;;3485797;41;20066;-83
2021/04/24 19:36:59;;;;;;;21.75;6.95;;;9.10;62.10;;;;;;3485323;41;20093;-84
2021/04/24 19:39:26;;;;;;;11.55;5.45;;;9.00;62.50;;;;;;3481374;41;20075;-83
2021/04/24 19:42:00;;;;;;;13.32;6.38;;;9.00;62.60;;;;;;3481208;41;20086;-83
2021/04/24 19:44:44;;;;;;;15.75;6.70;;;9.10;62.50;;;;;;3457566;41;20086;-84
2021/04/24 19:47:30;;;;;;;10.70;5.95;;;9.20;62.40;;;;;;3490439;41;20089;-83
2021/04/24 19:50:00;;;;;;;11.43;5.53;;;9.10;62.70;;;;;;3482756;41;20066;-84
2021/04/24 19:52:29;;;;;;;17.88;6.63;;;9.20;62.30;;;;;;3475228;41;20041;-84
2021/04/24 19:55:18;;;;;;;10.93;5.72;;;9.10;62.10;;;;;;3475082;41;20070;-84
2021/04/24 19:57:45;;;;;;;19.15;6.78;;;9.20;61.70;;;;;;3492199;41;20468;-85
2021/04/24 20:00:15;;;;;;;14.83;7.03;;;9.20;62.10;;;;;;3489650;41;20066;-83
2021/04/24 20:02:55;;;;;;;11.98;5.68;;;9.10;62.30;;;;;;3490169;41;20041;-84
2021/04/24 20:05:26;;;;;;;19.55;9.02;;;9.00;62.70;;;;;;3490644;41;20037;-85
2021/04/24 20:08:57;;;;;;;15.85;7.82;;;8.90;63.30;;;;;;3476318;41;20066;-84
2021/04/24 20:11:28;;;;;;;11.52;5.60;;;8.90;63.90;;;;;;3483522;41;20042;-84
2021/04/24 20:13:56;;;;;;;18.33;6.57;;;8.80;64.60;;;;;;3476160;41;20042;-86
2021/04/24 20:16:27;;;;;;;17.08;6.93;;;8.70;65.10;;;;;;3484483;41;20060;-84
2021/04/24 20:18:56;;;;;;;18.25;7.45;;;8.60;65.60;;;;;;3484929;41;20037;-86
2021/04/24 20:21:28;;;;;;;12.45;6.25;;;8.50;66.00;;;;;;3483562;41;20362;-85
2021/04/24 20:23:56;;;;;;;19.30;6.35;;;8.40;66.40;;;;;;3483313;41;20041;-85
2021/04/24 20:26:54;;;;;;;18.10;8.40;;;8.50;66.80;;;;;;3483932;41;20037;-87
2021/04/24 20:29:21;;;;;;;13.35;6.00;;;8.50;66.30;;;;;;3483457;41;20066;-84
2021/04/24 20:31:52;;;;;;;12.40;6.45;;;8.40;66.90;;;;;;3475129;41;20049;-84
2021/04/24 20:34:25;;;;;;;17.83;6.13;;;8.20;67.70;;;;;;3472525;41;20053;-84
2021/04/24 20:36:55;;;;;;;12.10;5.60;;;8.10;68.10;;;;;;3465268;41;20052;-83
2021/04/24 20:39:22;;;;;;;17.58;6.32;;;8.40;67.00;;;;;;3473270;41;20083;-85
2021/04/24 20:41:52;;;;;;;15.23;6.82;;;8.40;66.80;;;;;;3465914;41;20074;-84
2021/04/24 20:44:27;;;;;;;16.15;7.15;;;8.40;67.50;;;;;;3473518;41;20049;-82
2021/04/24 20:46:55;;;;;;;18.20;7.10;;;8.50;67.70;;;;;;3465459;41;20074;-84
2021/04/24 20:49:22;;;;;;;14.68;7.85;;;8.60;68.00;;;;;;3473008;41;20078;-85
2021/04/24 20:51:53;;;;;;;15.85;6.55;;;8.90;66.60;;;;;;3481166;41;20081;-84
2021/04/24 20:54:26;;;;;;;18.50;7.35;;;8.80;67.20;;;;;;3482406;41;20042;-83
2021/04/24 20:56:56;;;;;;;12.57;6.20;;;8.50;68.50;;;;;;3484377;41;20045;-83
2021/04/24 20:59:27;;;;;;;15.75;6.55;;;8.30;69.30;;;;;;3471802;41;20086;-83
2021/04/24 21:01:54;;;;;;;16.08;6.75;;;8.30;69.80;;;;;;3465431;41;20066;-82
2021/04/24 21:04:25;;;;;;;17.20;7.18;;;8.10;70.00;;;;;;3467565;41;20042;-82
2021/04/24 21:06:53;;;;;;;15.40;7.43;;;8.20;70.60;;;;;;3465805;41;20048;-84
2021/04/24 21:09:20;;;;;;;14.27;7.30;;;8.10;71.10;;;;;;3474003;41;20053;-85
2021/04/24 21:11:51;;;;;;;16.13;8.25;;;8.10;71.40;;;;;;3473917;41;20038;-80
2021/04/24 21:14:21;;;;;;;15.88;7.45;;;8.00;72.30;;;;;;3464957;41;20071;-85
2021/04/24 21:17:01;;;;;;;18.35;7.60;;;8.10;72.10;;;;;;3465503;41;20066;-80
2021/04/24 21:19:29;;;;;;;15.57;7.78;;;8.30;72.30;;;;;;3457360;41;20078;-81
2021/04/24 21:22:08;;;;;;;19.90;8.88;;;8.30;72.40;;;;;;3479422;41;20098;-82
2021/04/24 21:24:36;;;;;;;16.40;7.60;;;8.70;71.00;;;;;;3473305;41;20115;-82
2021/04/24 21:27:04;;;;;;;15.60;7.70;;;8.80;70.30;;;;;;3473076;41;20062;-81
2021/04/24 21:29:33;;;;;;;;;;;8.50;71.60;;;;;;3491380;41;20074;-82
2021/04/24 21:32:10;;;;;;;18.13;7.72;;;8.30;73.00;;;;;;3474070;41;19972;-83
2021/04/24 21:34:46;;;;;;;17.13;7.78;;;8.10;74.20;;;;;;3473718;41;20066;-81
2021/04/24 21:37:15;;;;;;;15.57;7.57;;;8.00;75.20;;;;;;3490496;41;20042;-84
2021/04/24 21:39:43;;;;;;;16.27;7.90;;;8.20;74.30;;;;;;3473611;41;20078;-82
2021/04/24 21:42:11;;;;;;;15.23;7.57;;;8.60;72.70;;;;;;3466234;41;20103;-83
2021/04/24 21:44:45;;;;;;;;;;;8.70;72.20;;;;;;3491339;41;20350;-85
2021/04/24 21:47:14;;;;;;;17.88;7.65;;;8.60;72.60;;;;;;3479443;41;19972;-81
2021/04/24 21:49:41;;;;;;;16.02;8.02;;;8.40;73.60;;;;;;3485433;41;20090;-81
2021/04/24 21:52:10;;;;;;;14.80;7.90;;;8.20;74.30;;;;;;3479736;41;20089;-84
2021/04/24 21:54:39;;;;;;;22.40;8.60;;;8.20;74.70;;;;;;3489805;41;20402;-84
2021/04/24 21:57:08;;;;;;;16.27;7.97;;;8.20;74.60;;;;;;3480573;41;20069;-82
2021/04/24 21:59:36;;;;;;;16.40;7.70;;;8.50;73.40;;;;;;3489296;41;20093;-84
2021/04/24 22:02:04;;;;;;;15.45;7.95;;;8.40;73.80;;;;;;3465799;41;20102;-84
2021/04/24 22:04:38;;;;;;;23.75;9.43;;;8.30;74.20;;;;;;3472996;41;20110;-86
2021/04/24 22:07:05;;;;;;;17.27;8.20;;;8.30;76.50;;;;;;3480415;41;20598;-82
2021/04/24 22:09:33;;;;;;;16.27;7.50;;;8.20;76.30;;;;;;3480573;41;20346;-82
2021/04/24 22:12:04;;;;;;;17.50;7.45;;;8.20;77.10;;;;;;3463941;41;20325;-81
2021/04/24 22:14:32;;;;;;;19.63;8.07;;;8.20;77.40;;;;;;3481035;41;20386;-83
2021/04/24 22:17:03;;;;;;;16.73;7.75;;;8.20;77.60;;;;;;3473057;41;20066;-83
2021/04/24 22:19:32;;;;;;;16.40;7.30;;;8.10;78.20;;;;;;3473422;41;20066;-81
2021/04/24 22:43:25;;;;;;;17.00;8.93;;;8.40;77.40;;;;;;3460492;41;20082;-82
2021/04/24 22:45:53;;;;;;;18.63;8.25;;;8.60;76.50;;;;;;3468682;41;20082;-83
2021/04/24 22:48:22;;;;;;;20.60;10.35;;;8.60;76.60;;;;;;3459839;41;20082;-85
2021/04/24 22:51:18;;;;;;;24.58;9.38;;;8.60;77.00;;;;;;3458890;41;20066;-81
2021/04/24 22:53:48;;;;;;;19.42;8.23;;;8.50;77.60;;;;;;3465113;41;20082;-82
2021/04/24 22:56:16;;;;;;;17.35;8.07;;;8.50;77.10;;;;;;3462400;41;20067;-83
2021/04/24 22:58:45;;;;;;;17.65;7.85;;;8.50;77.20;;;;;;3452834;41;20083;-82
2021/04/24 23:01:12;;;;;;;15.15;7.85;;;8.50;77.20;;;;;;3470500;41;20102;-83
2021/04/24 23:03:42;;;;;;;;;;;8.50;77.20;;;;;;3455500;41;20071;-83
2021/04/24 23:06:12;;;;;;;16.42;7.85;;;8.50;77.90;;;;;;3461643;41;20021;-82
2021/04/24 23:08:39;;;;;;;14.60;7.35;;;8.20;79.30;;;;;;3455434;41;20082;-81
2021/04/24 23:11:07;;;;;;;21.80;8.30;;;8.00;81.10;;;;;;3453061;41;20070;-81